sensor_id;sensor_type;location;lat;lon;timestamp;P1;durP1;ratioP1;P2;durP2;ratioP2
52284;SDS011;38238;53.304;6.606;2023-01-10T00:00:18;16.65;;;15.25;;
52284;SDS011;38238;53.304;6.606;2023-01-10T00:02:49;18.02;;;16.80;;
52284;SDS011;38238;53.304;6.606;2023-01-10T00:05:15;20.15;;;18.33;;
52284;SDS011;38238;53.304;6.606;2023-01-10T00:07:41;18.83;;;17.25;;
52284;SDS011;38238;53.304;6.606;2023-01-10T00:10:07;18.05;;;16.30;;
52284;SDS011;38238;53.304;6.606;2023-01-10T00:12:34;18.50;;;16.73;;
52284;SDS011;38238;53.304;6.606;2023-01-10T00:15:18;19.13;;;17.42;;
52284;SDS011;38238;53.304;6.606;2023-01-10T00:17:44;19.17;;;17.90;;
52284;SDS011;38238;53.304;6.606;2023-01-10T00:20:10;18.73;;;16.98;;
52284;SDS011;38238;53.304;6.606;2023-01-10T00:22:36;17.13;;;15.52;;
52284;SDS011;38238;53.304;6.606;2023-01-10T00:25:02;19.30;;;17.63;;
52284;SDS011;38238;53.304;6.606;2023-01-10T00:27:28;19.48;;;18.02;;
52284;SDS011;38238;53.304;6.606;2023-01-10T00:29:53;21.85;;;18.42;;
52284;SDS011;38238;53.304;6.606;2023-01-10T00:32:20;19.92;;;17.98;;
52284;SDS011;38238;53.304;6.606;2023-01-10T00:34:46;19.70;;;17.83;;
52284;SDS011;38238;53.304;6.606;2023-01-10T00:37:12;18.58;;;17.13;;
52284;SDS011;38238;53.304;6.606;2023-01-10T00:39:38;18.98;;;17.73;;
52284;SDS011;38238;53.304;6.606;2023-01-10T00:42:04;19.13;;;17.05;;
52284;SDS011;38238;53.304;6.606;2023-01-10T00:44:48;20.58;;;18.75;;
52284;SDS011;38238;53.304;6.606;2023-01-10T00:47:14;19.02;;;17.42;;
52284;SDS011;38238;53.304;6.606;2023-01-10T00:49:40;18.23;;;16.42;;
52284;SDS011;38238;53.304;6.606;2023-01-10T00:52:06;20.30;;;18.40;;
52284;SDS011;38238;53.304;6.606;2023-01-10T00:54:32;20.05;;;18.30;;
52284;SDS011;38238;53.304;6.606;2023-01-10T00:56:58;20.33;;;18.83;;
52284;SDS011;38238;53.304;6.606;2023-01-10T00:59:24;19.15;;;17.35;;
52284;SDS011;38238;53.304;6.606;2023-01-10T01:01:50;19.63;;;18.02;;
52284;SDS011;38238;53.304;6.606;2023-01-10T01:04:16;18.92;;;17.00;;
52284;SDS011;38238;53.304;6.606;2023-01-10T01:06:43;20.02;;;18.10;;
52284;SDS011;38238;53.304;6.606;2023-01-10T01:09:11;20.40;;;18.70;;
52284;SDS011;38238;53.304;6.606;2023-01-10T01:11:37;19.52;;;17.80;;
52284;SDS011;38238;53.304;6.606;2023-01-10T01:14:02;23.08;;;18.88;;
52284;SDS011;38238;53.304;6.606;2023-01-10T01:16:28;18.95;;;17.10;;
52284;SDS011;38238;53.304;6.606;2023-01-10T01:18:54;20.55;;;18.55;;
52284;SDS011;38238;53.304;6.606;2023-01-10T01:21:19;19.70;;;17.67;;
52284;SDS011;38238;53.304;6.606;2023-01-10T01:23:45;17.52;;;15.70;;
52284;SDS011;38238;53.304;6.606;2023-01-10T01:26:11;19.38;;;15.27;;
52284;SDS011;38238;53.304;6.606;2023-01-10T01:28:37;18.20;;;15.82;;
52284;SDS011;38238;53.304;6.606;2023-01-10T01:31:06;14.68;;;13.40;;
52284;SDS011;38238;53.304;6.606;2023-01-10T01:33:33;16.10;;;14.63;;
52284;SDS011;38238;53.304;6.606;2023-01-10T01:35:59;17.30;;;15.95;;
52284;SDS011;38238;53.304;6.606;2023-01-10T01:38:25;19.90;;;18.33;;
52284;SDS011;38238;53.304;6.606;2023-01-10T01:40:51;16.73;;;15.05;;
52284;SDS011;38238;53.304;6.606;2023-01-10T01:43:23;15.70;;;14.35;;
52284;SDS011;38238;53.304;6.606;2023-01-10T01:45:51;17.25;;;15.40;;
52284;SDS011;38238;53.304;6.606;2023-01-10T01:50:54;16.02;;;11.02;;
52284;SDS011;38238;53.304;6.606;2023-01-10T01:53:25;18.05;;;10.73;;
52284;SDS011;38238;53.304;6.606;2023-01-10T01:56:15;12.20;;;10.90;;
52284;SDS011;38238;53.304;6.606;2023-01-10T01:58:54;15.02;;;11.27;;
52284;SDS011;38238;53.304;6.606;2023-01-10T02:01:26;15.90;;;12.68;;
52284;SDS011;38238;53.304;6.606;2023-01-10T02:03:55;16.73;;;13.70;;
52284;SDS011;38238;53.304;6.606;2023-01-10T02:06:25;16.90;;;14.30;;
52284;SDS011;38238;53.304;6.606;2023-01-10T02:08:52;21.20;;;13.85;;
52284;SDS011;38238;53.304;6.606;2023-01-10T02:11:39;14.10;;;11.82;;
52284;SDS011;38238;53.304;6.606;2023-01-10T02:14:05;13.55;;;12.05;;
52284;SDS011;38238;53.304;6.606;2023-01-10T02:16:34;19.80;;;12.75;;
52284;SDS011;38238;53.304;6.606;2023-01-10T02:19:00;17.60;;;11.77;;
52284;SDS011;38238;53.304;6.606;2023-01-10T02:37:50;16.25;;;14.32;;
52284;SDS011;38238;53.304;6.606;2023-01-10T02:43:10;19.17;;;17.60;;
52284;SDS011;38238;53.304;6.606;2023-01-10T02:45:59;21.50;;;19.73;;
52284;SDS011;38238;53.304;6.606;2023-01-10T02:48:29;22.33;;;20.58;;
52284;SDS011;38238;53.304;6.606;2023-01-10T02:50:57;24.63;;;22.63;;
52284;SDS011;38238;53.304;6.606;2023-01-10T02:53:38;18.35;;;17.05;;
52284;SDS011;38238;53.304;6.606;2023-01-10T02:56:15;21.90;;;20.30;;
52284;SDS011;38238;53.304;6.606;2023-01-10T03:04:13;22.58;;;20.65;;
52284;SDS011;38238;53.304;6.606;2023-01-10T03:12:00;21.13;;;19.75;;
52284;SDS011;38238;53.304;6.606;2023-01-10T03:14:36;22.33;;;20.35;;
52284;SDS011;38238;53.304;6.606;2023-01-10T03:17:05;23.00;;;21.52;;
52284;SDS011;38238;53.304;6.606;2023-01-10T03:19:35;24.83;;;22.83;;
52284;SDS011;38238;53.304;6.606;2023-01-10T03:22:06;22.35;;;20.30;;
52284;SDS011;38238;53.304;6.606;2023-01-10T03:24:40;21.95;;;20.45;;
52284;SDS011;38238;53.304;6.606;2023-01-10T03:27:11;23.02;;;21.05;;
52284;SDS011;38238;53.304;6.606;2023-01-10T03:29:59;21.67;;;20.15;;
52284;SDS011;38238;53.304;6.606;2023-01-10T03:32:45;23.58;;;21.30;;
52284;SDS011;38238;53.304;6.606;2023-01-10T03:35:11;22.52;;;20.75;;
52284;SDS011;38238;53.304;6.606;2023-01-10T03:37:54;24.27;;;22.23;;
52284;SDS011;38238;53.304;6.606;2023-01-10T03:40:41;25.02;;;23.30;;
52284;SDS011;38238;53.304;6.606;2023-01-10T03:43:25;23.98;;;21.98;;
52284;SDS011;38238;53.304;6.606;2023-01-10T03:46:26;25.05;;;23.25;;
52284;SDS011;38238;53.304;6.606;2023-01-10T03:48:57;24.63;;;22.92;;
52284;SDS011;38238;53.304;6.606;2023-01-10T03:51:24;26.80;;;24.77;;
52284;SDS011;38238;53.304;6.606;2023-01-10T03:53:51;27.23;;;25.00;;
52284;SDS011;38238;53.304;6.606;2023-01-10T03:56:17;23.77;;;21.95;;
52284;SDS011;38238;53.304;6.606;2023-01-10T03:58:43;18.85;;;17.45;;
52284;SDS011;38238;53.304;6.606;2023-01-10T04:01:08;16.17;;;14.80;;
52284;SDS011;38238;53.304;6.606;2023-01-10T04:03:34;17.50;;;15.88;;
52284;SDS011;38238;53.304;6.606;2023-01-10T04:06:00;16.63;;;15.00;;
52284;SDS011;38238;53.304;6.606;2023-01-10T04:08:27;14.77;;;12.85;;
52284;SDS011;38238;53.304;6.606;2023-01-10T04:10:52;17.38;;;12.60;;
52284;SDS011;38238;53.304;6.606;2023-01-10T04:13:18;13.73;;;12.13;;
52284;SDS011;38238;53.304;6.606;2023-01-10T04:15:44;14.77;;;13.30;;
52284;SDS011;38238;53.304;6.606;2023-01-10T04:18:09;14.25;;;11.68;;
52284;SDS011;38238;53.304;6.606;2023-01-10T04:20:37;14.25;;;12.45;;
52284;SDS011;38238;53.304;6.606;2023-01-10T04:23:02;16.90;;;11.65;;
52284;SDS011;38238;53.304;6.606;2023-01-10T04:25:28;16.70;;;12.18;;
52284;SDS011;38238;53.304;6.606;2023-01-10T04:27:54;11.80;;;10.73;;
52284;SDS011;38238;53.304;6.606;2023-01-10T04:30:19;13.55;;;11.73;;
52284;SDS011;38238;53.304;6.606;2023-01-10T04:32:45;12.80;;;11.60;;
52284;SDS011;38238;53.304;6.606;2023-01-10T04:35:11;13.48;;;11.73;;
52284;SDS011;38238;53.304;6.606;2023-01-10T04:37:37;16.30;;;13.50;;
52284;SDS011;38238;53.304;6.606;2023-01-10T04:40:03;17.48;;;14.10;;
52284;SDS011;38238;53.304;6.606;2023-01-10T04:42:29;16.23;;;14.75;;
52284;SDS011;38238;53.304;6.606;2023-01-10T04:44:55;15.75;;;13.63;;
52284;SDS011;38238;53.304;6.606;2023-01-10T04:47:21;14.30;;;12.73;;
52284;SDS011;38238;53.304;6.606;2023-01-10T04:49:46;16.20;;;13.82;;
52284;SDS011;38238;53.304;6.606;2023-01-10T04:52:12;16.45;;;13.52;;
52284;SDS011;38238;53.304;6.606;2023-01-10T04:54:38;13.32;;;12.07;;
52284;SDS011;38238;53.304;6.606;2023-01-10T04:57:03;14.32;;;11.48;;
52284;SDS011;38238;53.304;6.606;2023-01-10T04:59:30;17.02;;;14.98;;
52284;SDS011;38238;53.304;6.606;2023-01-10T05:01:56;16.85;;;14.98;;
52284;SDS011;38238;53.304;6.606;2023-01-10T05:04:22;18.67;;;16.83;;
52284;SDS011;38238;53.304;6.606;2023-01-10T05:06:48;16.83;;;15.23;;
52284;SDS011;38238;53.304;6.606;2023-01-10T05:09:14;14.90;;;13.57;;
52284;SDS011;38238;53.304;6.606;2023-01-10T05:11:40;16.75;;;15.18;;
52284;SDS011;38238;53.304;6.606;2023-01-10T05:14:05;18.00;;;13.15;;
52284;SDS011;38238;53.304;6.606;2023-01-10T05:16:31;16.17;;;13.85;;
52284;SDS011;38238;53.304;6.606;2023-01-10T05:18:57;15.85;;;12.75;;
52284;SDS011;38238;53.304;6.606;2023-01-10T05:21:23;15.88;;;13.40;;
52284;SDS011;38238;53.304;6.606;2023-01-10T05:23:48;20.50;;;13.38;;
52284;SDS011;38238;53.304;6.606;2023-01-10T05:26:15;12.52;;;11.35;;
52284;SDS011;38238;53.304;6.606;2023-01-10T05:28:43;17.23;;;12.15;;
52284;SDS011;38238;53.304;6.606;2023-01-10T05:31:10;17.42;;;13.98;;
52284;SDS011;38238;53.304;6.606;2023-01-10T05:33:37;13.55;;;12.43;;
52284;SDS011;38238;53.304;6.606;2023-01-10T05:36:04;18.38;;;15.20;;
52284;SDS011;38238;53.304;6.606;2023-01-10T05:38:30;15.52;;;13.63;;
52284;SDS011;38238;53.304;6.606;2023-01-10T05:40:57;13.70;;;12.43;;
52284;SDS011;38238;53.304;6.606;2023-01-10T05:43:24;16.67;;;14.30;;
52284;SDS011;38238;53.304;6.606;2023-01-10T05:45:50;16.80;;;13.65;;
52284;SDS011;38238;53.304;6.606;2023-01-10T05:48:16;13.85;;;11.52;;
52284;SDS011;38238;53.304;6.606;2023-01-10T05:50:42;16.02;;;11.60;;
52284;SDS011;38238;53.304;6.606;2023-01-10T05:53:08;12.25;;;10.25;;
52284;SDS011;38238;53.304;6.606;2023-01-10T05:55:34;14.77;;;11.57;;
52284;SDS011;38238;53.304;6.606;2023-01-10T05:57:59;12.32;;;9.82;;
52284;SDS011;38238;53.304;6.606;2023-01-10T06:00:25;11.02;;;9.55;;
52284;SDS011;38238;53.304;6.606;2023-01-10T06:02:54;11.80;;;10.07;;
52284;SDS011;38238;53.304;6.606;2023-01-10T06:05:21;11.23;;;10.07;;
52284;SDS011;38238;53.304;6.606;2023-01-10T06:07:47;18.80;;;12.13;;
52284;SDS011;38238;53.304;6.606;2023-01-10T06:10:13;18.15;;;10.98;;
52284;SDS011;38238;53.304;6.606;2023-01-10T06:12:40;15.38;;;8.77;;
52284;SDS011;38238;53.304;6.606;2023-01-10T06:15:07;10.23;;;8.25;;
52284;SDS011;38238;53.304;6.606;2023-01-10T06:17:33;13.40;;;10.38;;
52284;SDS011;38238;53.304;6.606;2023-01-10T06:19:59;13.10;;;7.63;;
52284;SDS011;38238;53.304;6.606;2023-01-10T06:22:25;13.60;;;9.40;;
52284;SDS011;38238;53.304;6.606;2023-01-10T06:24:52;14.40;;;9.07;;
52284;SDS011;38238;53.304;6.606;2023-01-10T06:27:19;9.38;;;8.52;;
52284;SDS011;38238;53.304;6.606;2023-01-10T06:29:44;17.27;;;9.38;;
52284;SDS011;38238;53.304;6.606;2023-01-10T06:32:10;11.43;;;7.93;;
52284;SDS011;38238;53.304;6.606;2023-01-10T06:34:36;12.68;;;7.90;;
52284;SDS011;38238;53.304;6.606;2023-01-10T06:37:01;11.30;;;8.88;;
52284;SDS011;38238;53.304;6.606;2023-01-10T06:39:27;11.40;;;9.13;;
52284;SDS011;38238;53.304;6.606;2023-01-10T06:41:53;15.40;;;10.52;;
52284;SDS011;38238;53.304;6.606;2023-01-10T06:44:19;12.85;;;10.55;;
52284;SDS011;38238;53.304;6.606;2023-01-10T06:46:44;12.77;;;11.73;;
52284;SDS011;38238;53.304;6.606;2023-01-10T06:49:10;13.60;;;12.38;;
52284;SDS011;38238;53.304;6.606;2023-01-10T06:51:36;16.63;;;14.45;;
52284;SDS011;38238;53.304;6.606;2023-01-10T06:54:01;16.52;;;15.13;;
52284;SDS011;38238;53.304;6.606;2023-01-10T06:56:27;13.88;;;12.60;;
52284;SDS011;38238;53.304;6.606;2023-01-10T06:58:53;15.52;;;14.13;;
52284;SDS011;38238;53.304;6.606;2023-01-10T07:01:19;16.10;;;14.70;;
52284;SDS011;38238;53.304;6.606;2023-01-10T07:03:45;18.75;;;17.55;;
52284;SDS011;38238;53.304;6.606;2023-01-10T07:06:12;17.15;;;15.93;;
52284;SDS011;38238;53.304;6.606;2023-01-10T07:08:42;16.52;;;15.30;;
52284;SDS011;38238;53.304;6.606;2023-01-10T07:11:10;16.98;;;15.50;;
52284;SDS011;38238;53.304;6.606;2023-01-10T07:13:37;17.38;;;16.13;;
52284;SDS011;38238;53.304;6.606;2023-01-10T07:16:04;16.92;;;15.35;;
52284;SDS011;38238;53.304;6.606;2023-01-10T07:18:32;16.13;;;14.93;;
52284;SDS011;38238;53.304;6.606;2023-01-10T07:20:59;18.15;;;16.70;;
52284;SDS011;38238;53.304;6.606;2023-01-10T07:23:25;16.38;;;15.05;;
52284;SDS011;38238;53.304;6.606;2023-01-10T07:25:51;16.83;;;15.23;;
52284;SDS011;38238;53.304;6.606;2023-01-10T07:28:16;14.73;;;13.35;;
52284;SDS011;38238;53.304;6.606;2023-01-10T07:30:42;12.93;;;11.82;;
52284;SDS011;38238;53.304;6.606;2023-01-10T07:33:08;12.82;;;11.65;;
52284;SDS011;38238;53.304;6.606;2023-01-10T07:35:34;14.10;;;11.88;;
52284;SDS011;38238;53.304;6.606;2023-01-10T07:38:00;16.02;;;13.50;;
52284;SDS011;38238;53.304;6.606;2023-01-10T07:40:27;12.93;;;11.65;;
52284;SDS011;38238;53.304;6.606;2023-01-10T07:42:59;12.55;;;11.40;;
52284;SDS011;38238;53.304;6.606;2023-01-10T07:45:26;14.18;;;11.57;;
52284;SDS011;38238;53.304;6.606;2023-01-10T07:47:56;13.63;;;12.27;;
52284;SDS011;38238;53.304;6.606;2023-01-10T07:50:23;17.95;;;15.20;;
52284;SDS011;38238;53.304;6.606;2023-01-10T07:52:49;17.90;;;14.18;;
52284;SDS011;38238;53.304;6.606;2023-01-10T07:55:15;17.27;;;15.02;;
52284;SDS011;38238;53.304;6.606;2023-01-10T07:57:42;17.55;;;15.45;;
52284;SDS011;38238;53.304;6.606;2023-01-10T08:00:08;23.15;;;16.45;;
52284;SDS011;38238;53.304;6.606;2023-01-10T08:02:34;17.52;;;15.60;;
52284;SDS011;38238;53.304;6.606;2023-01-10T08:04:59;16.00;;;13.38;;
52284;SDS011;38238;53.304;6.606;2023-01-10T08:07:27;22.40;;;15.75;;
52284;SDS011;38238;53.304;6.606;2023-01-10T08:09:53;19.75;;;15.02;;
52284;SDS011;38238;53.304;6.606;2023-01-10T08:12:19;22.63;;;17.38;;
52284;SDS011;38238;53.304;6.606;2023-01-10T08:14:45;20.90;;;14.68;;
52284;SDS011;38238;53.304;6.606;2023-01-10T08:17:11;20.05;;;16.00;;
52284;SDS011;38238;53.304;6.606;2023-01-10T08:19:37;24.58;;;16.45;;
52284;SDS011;38238;53.304;6.606;2023-01-10T08:22:02;21.50;;;16.83;;
52284;SDS011;38238;53.304;6.606;2023-01-10T08:24:28;20.23;;;16.80;;
52284;SDS011;38238;53.304;6.606;2023-01-10T08:26:56;22.98;;;19.15;;
52284;SDS011;38238;53.304;6.606;2023-01-10T08:29:22;19.95;;;14.48;;
52284;SDS011;38238;53.304;6.606;2023-01-10T08:31:48;21.35;;;14.43;;
52284;SDS011;38238;53.304;6.606;2023-01-10T08:34:14;16.77;;;14.02;;
52284;SDS011;38238;53.304;6.606;2023-01-10T08:36:39;20.23;;;14.88;;
52284;SDS011;38238;53.304;6.606;2023-01-10T08:39:05;20.65;;;15.63;;
52284;SDS011;38238;53.304;6.606;2023-01-10T08:41:31;20.27;;;16.58;;
52284;SDS011;38238;53.304;6.606;2023-01-10T08:43:56;23.38;;;16.63;;
52284;SDS011;38238;53.304;6.606;2023-01-10T08:46:22;17.67;;;15.20;;
52284;SDS011;38238;53.304;6.606;2023-01-10T08:48:48;23.15;;;17.00;;
52284;SDS011;38238;53.304;6.606;2023-01-10T08:51:14;19.63;;;16.10;;
52284;SDS011;38238;53.304;6.606;2023-01-10T08:53:40;21.83;;;15.85;;
52284;SDS011;38238;53.304;6.606;2023-01-10T08:56:06;22.80;;;14.98;;
52284;SDS011;38238;53.304;6.606;2023-01-10T08:58:32;16.90;;;13.75;;
52284;SDS011;38238;53.304;6.606;2023-01-10T09:00:58;29.20;;;16.45;;
52284;SDS011;38238;53.304;6.606;2023-01-10T09:03:27;25.85;;;17.42;;
52284;SDS011;38238;53.304;6.606;2023-01-10T09:05:53;20.45;;;16.98;;
52284;SDS011;38238;53.304;6.606;2023-01-10T09:08:18;18.67;;;16.40;;
52284;SDS011;38238;53.304;6.606;2023-01-10T09:10:44;25.08;;;17.27;;
52284;SDS011;38238;53.304;6.606;2023-01-10T09:13:10;25.67;;;16.20;;
52284;SDS011;38238;53.304;6.606;2023-01-10T09:15:36;24.38;;;15.57;;
52284;SDS011;38238;53.304;6.606;2023-01-10T09:18:06;22.85;;;17.25;;
52284;SDS011;38238;53.304;6.606;2023-01-10T09:20:32;22.35;;;14.80;;
52284;SDS011;38238;53.304;6.606;2023-01-10T09:23:07;23.65;;;14.00;;
52284;SDS011;38238;53.304;6.606;2023-01-10T09:25:35;20.58;;;15.02;;
52284;SDS011;38238;53.304;6.606;2023-01-10T09:28:01;23.23;;;19.10;;
52284;SDS011;38238;53.304;6.606;2023-01-10T09:30:28;22.10;;;18.77;;
52284;SDS011;38238;53.304;6.606;2023-01-10T09:32:55;22.95;;;12.43;;
52284;SDS011;38238;53.304;6.606;2023-01-10T09:35:22;20.08;;;14.00;;
52284;SDS011;38238;53.304;6.606;2023-01-10T09:37:49;23.85;;;13.95;;
52284;SDS011;38238;53.304;6.606;2023-01-10T09:40:18;26.88;;;22.35;;
52284;SDS011;38238;53.304;6.606;2023-01-10T09:45:50;19.60;;;12.20;;
52284;SDS011;38238;53.304;6.606;2023-01-10T09:53:53;18.02;;;12.75;;
52284;SDS011;38238;53.304;6.606;2023-01-10T09:56:24;16.13;;;9.43;;
52284;SDS011;38238;53.304;6.606;2023-01-10T09:58:51;19.95;;;8.13;;
52284;SDS011;38238;53.304;6.606;2023-01-10T10:01:18;19.45;;;7.25;;
52284;SDS011;38238;53.304;6.606;2023-01-10T10:03:50;17.48;;;7.10;;
52284;SDS011;38238;53.304;6.606;2023-01-10T10:06:47;20.42;;;7.20;;
52284;SDS011;38238;53.304;6.606;2023-01-10T10:09:14;18.80;;;8.15;;
52284;SDS011;38238;53.304;6.606;2023-01-10T10:26:12;15.23;;;11.48;;
52284;SDS011;38238;53.304;6.606;2023-01-10T10:31:53;17.13;;;8.10;;
52284;SDS011;38238;53.304;6.606;2023-01-10T10:37:19;16.75;;;7.20;;
52284;SDS011;38238;53.304;6.606;2023-01-10T10:40:01;19.83;;;8.18;;
52284;SDS011;38238;53.304;6.606;2023-01-10T10:42:41;19.17;;;7.18;;
52284;SDS011;38238;53.304;6.606;2023-01-10T10:51:03;13.38;;;8.10;;
52284;SDS011;38238;53.304;6.606;2023-01-10T10:53:49;13.30;;;7.47;;
52284;SDS011;38238;53.304;6.606;2023-01-10T10:56:16;14.27;;;6.90;;
52284;SDS011;38238;53.304;6.606;2023-01-10T10:58:47;15.15;;;6.38;;
52284;SDS011;38238;53.304;6.606;2023-01-10T11:01:15;16.40;;;6.60;;
52284;SDS011;38238;53.304;6.606;2023-01-10T11:06:22;13.50;;;6.95;;
52284;SDS011;38238;53.304;6.606;2023-01-10T11:08:52;14.38;;;7.53;;
52284;SDS011;38238;53.304;6.606;2023-01-10T11:11:26;10.90;;;4.93;;
52284;SDS011;38238;53.304;6.606;2023-01-10T11:13:55;16.38;;;7.20;;
52284;SDS011;38238;53.304;6.606;2023-01-10T11:16:23;17.17;;;6.90;;
52284;SDS011;38238;53.304;6.606;2023-01-10T11:19:07;15.27;;;5.40;;
52284;SDS011;38238;53.304;6.606;2023-01-10T11:21:33;10.98;;;6.93;;
52284;SDS011;38238;53.304;6.606;2023-01-10T11:24:00;19.27;;;6.75;;
52284;SDS011;38238;53.304;6.606;2023-01-10T11:26:27;13.98;;;5.95;;
52284;SDS011;38238;53.304;6.606;2023-01-10T11:31:32;17.85;;;8.10;;
52284;SDS011;38238;53.304;6.606;2023-01-10T11:34:02;17.88;;;9.25;;
52284;SDS011;38238;53.304;6.606;2023-01-10T11:39:27;17.08;;;9.40;;
52284;SDS011;38238;53.304;6.606;2023-01-10T11:41:54;19.73;;;10.02;;
52284;SDS011;38238;53.304;6.606;2023-01-10T11:44:28;19.10;;;10.38;;
52284;SDS011;38238;53.304;6.606;2023-01-10T11:46:55;16.27;;;8.35;;
52284;SDS011;38238;53.304;6.606;2023-01-10T11:52:23;17.63;;;8.85;;
52284;SDS011;38238;53.304;6.606;2023-01-10T11:54:50;21.17;;;9.40;;
52284;SDS011;38238;53.304;6.606;2023-01-10T11:57:19;18.77;;;8.80;;
52284;SDS011;38238;53.304;6.606;2023-01-10T11:59:52;20.60;;;11.35;;
52284;SDS011;38238;53.304;6.606;2023-01-10T12:02:39;17.88;;;8.73;;
52284;SDS011;38238;53.304;6.606;2023-01-10T12:05:08;23.08;;;8.43;;
52284;SDS011;38238;53.304;6.606;2023-01-10T12:10:33;18.90;;;8.68;;
52284;SDS011;38238;53.304;6.606;2023-01-10T12:13:07;18.23;;;7.60;;
52284;SDS011;38238;53.304;6.606;2023-01-10T12:15:39;19.52;;;8.65;;
52284;SDS011;38238;53.304;6.606;2023-01-10T12:18:05;19.30;;;9.32;;
52284;SDS011;38238;53.304;6.606;2023-01-10T12:20:32;20.95;;;11.82;;
52284;SDS011;38238;53.304;6.606;2023-01-10T12:23:07;19.30;;;9.35;;
52284;SDS011;38238;53.304;6.606;2023-01-10T12:25:40;23.40;;;9.88;;
52284;SDS011;38238;53.304;6.606;2023-01-10T12:28:17;21.90;;;9.63;;
52284;SDS011;38238;53.304;6.606;2023-01-10T12:30:46;20.92;;;9.38;;
52284;SDS011;38238;53.304;6.606;2023-01-10T12:39:07;18.38;;;8.48;;
52284;SDS011;38238;53.304;6.606;2023-01-10T12:44:31;22.40;;;9.55;;
52284;SDS011;38238;53.304;6.606;2023-01-10T12:50:20;22.10;;;11.13;;
52284;SDS011;38238;53.304;6.606;2023-01-10T12:53:02;20.65;;;10.43;;
52284;SDS011;38238;53.304;6.606;2023-01-10T12:55:32;18.95;;;11.07;;
52284;SDS011;38238;53.304;6.606;2023-01-10T12:58:09;24.63;;;10.20;;
52284;SDS011;38238;53.304;6.606;2023-01-10T13:00:42;13.30;;;7.68;;
52284;SDS011;38238;53.304;6.606;2023-01-10T13:03:12;18.10;;;8.45;;
52284;SDS011;38238;53.304;6.606;2023-01-10T13:05:43;15.13;;;9.07;;
52284;SDS011;38238;53.304;6.606;2023-01-10T13:08:14;18.52;;;9.95;;
52284;SDS011;38238;53.304;6.606;2023-01-10T13:10:42;22.52;;;10.15;;
52284;SDS011;38238;53.304;6.606;2023-01-10T13:13:17;18.92;;;9.32;;
52284;SDS011;38238;53.304;6.606;2023-01-10T13:18:29;16.45;;;8.38;;
52284;SDS011;38238;53.304;6.606;2023-01-10T13:21:02;20.15;;;7.75;;
52284;SDS011;38238;53.304;6.606;2023-01-10T13:23:33;22.17;;;11.30;;
52284;SDS011;38238;53.304;6.606;2023-01-10T13:26:05;15.00;;;9.27;;
52284;SDS011;38238;53.304;6.606;2023-01-10T13:28:34;17.15;;;9.25;;
52284;SDS011;38238;53.304;6.606;2023-01-10T13:31:03;20.20;;;10.52;;
52284;SDS011;38238;53.304;6.606;2023-01-10T13:33:32;16.58;;;9.30;;
52284;SDS011;38238;53.304;6.606;2023-01-10T13:36:21;21.80;;;11.50;;
52284;SDS011;38238;53.304;6.606;2023-01-10T13:38:57;17.63;;;9.43;;
52284;SDS011;38238;53.304;6.606;2023-01-10T13:42:21;18.48;;;8.60;;
52284;SDS011;38238;53.304;6.606;2023-01-10T14:06:04;20.45;;;8.60;;
52284;SDS011;38238;53.304;6.606;2023-01-10T14:08:58;11.30;;;6.60;;
52284;SDS011;38238;53.304;6.606;2023-01-10T14:11:27;16.48;;;7.63;;
52284;SDS011;38238;53.304;6.606;2023-01-10T14:16:47;15.05;;;7.05;;
52284;SDS011;38238;53.304;6.606;2023-01-10T14:19:25;18.13;;;6.75;;
52284;SDS011;38238;53.304;6.606;2023-01-10T14:21:54;21.15;;;7.63;;
52284;SDS011;38238;53.304;6.606;2023-01-10T14:27:15;22.17;;;8.57;;
52284;SDS011;38238;53.304;6.606;2023-01-10T14:29:47;15.75;;;6.43;;
52284;SDS011;38238;53.304;6.606;2023-01-10T14:32:30;17.40;;;7.70;;
52284;SDS011;38238;53.304;6.606;2023-01-10T14:35:00;15.48;;;6.95;;
52284;SDS011;38238;53.304;6.606;2023-01-10T14:37:32;23.02;;;6.35;;
52284;SDS011;38238;53.304;6.606;2023-01-10T14:40:03;14.73;;;7.22;;
52284;SDS011;38238;53.304;6.606;2023-01-10T14:42:34;14.60;;;6.60;;
52284;SDS011;38238;53.304;6.606;2023-01-10T14:45:04;22.05;;;8.00;;
52284;SDS011;38238;53.304;6.606;2023-01-10T14:47:40;15.15;;;7.18;;
52284;SDS011;38238;53.304;6.606;2023-01-10T14:50:21;15.25;;;6.40;;
52284;SDS011;38238;53.304;6.606;2023-01-10T14:52:52;11.27;;;6.93;;
52284;SDS011;38238;53.304;6.606;2023-01-10T14:55:20;21.38;;;7.38;;
52284;SDS011;38238;53.304;6.606;2023-01-10T14:57:56;17.20;;;7.50;;
52284;SDS011;38238;53.304;6.606;2023-01-10T15:00:27;14.57;;;6.30;;
52284;SDS011;38238;53.304;6.606;2023-01-10T15:02:57;21.88;;;8.13;;
52284;SDS011;38238;53.304;6.606;2023-01-10T15:05:35;16.85;;;7.43;;
52284;SDS011;38238;53.304;6.606;2023-01-10T15:08:16;16.70;;;7.75;;
52284;SDS011;38238;53.304;6.606;2023-01-10T15:10:48;15.52;;;7.88;;
52284;SDS011;38238;53.304;6.606;2023-01-10T15:13:17;15.05;;;7.20;;
52284;SDS011;38238;53.304;6.606;2023-01-10T15:15:47;14.93;;;6.63;;
52284;SDS011;38238;53.304;6.606;2023-01-10T15:21:03;16.95;;;8.55;;
52284;SDS011;38238;53.304;6.606;2023-01-10T15:23:33;14.88;;;7.55;;
52284;SDS011;38238;53.304;6.606;2023-01-10T15:26:01;16.20;;;6.68;;
52284;SDS011;38238;53.304;6.606;2023-01-10T15:28:29;19.83;;;7.72;;
52284;SDS011;38238;53.304;6.606;2023-01-10T15:30:55;16.55;;;6.65;;
52284;SDS011;38238;53.304;6.606;2023-01-10T15:33:29;15.88;;;6.82;;
52284;SDS011;38238;53.304;6.606;2023-01-10T15:38:30;16.60;;;7.75;;
52284;SDS011;38238;53.304;6.606;2023-01-10T15:41:00;18.75;;;7.72;;
52284;SDS011;38238;53.304;6.606;2023-01-10T15:43:29;16.20;;;8.07;;
52284;SDS011;38238;53.304;6.606;2023-01-10T15:45:56;17.33;;;8.38;;
52284;SDS011;38238;53.304;6.606;2023-01-10T15:56:17;16.45;;;7.25;;
52284;SDS011;38238;53.304;6.606;2023-01-10T15:58:53;24.60;;;8.40;;
52284;SDS011;38238;53.304;6.606;2023-01-10T16:01:19;18.92;;;7.78;;
52284;SDS011;38238;53.304;6.606;2023-01-10T16:03:49;15.48;;;7.85;;
52284;SDS011;38238;53.304;6.606;2023-01-10T16:06:31;18.63;;;8.50;;
52284;SDS011;38238;53.304;6.606;2023-01-10T16:08:59;16.15;;;8.52;;
52284;SDS011;38238;53.304;6.606;2023-01-10T16:14:19;22.20;;;7.38;;
52284;SDS011;38238;53.304;6.606;2023-01-10T16:16:44;17.98;;;7.05;;
52284;SDS011;38238;53.304;6.606;2023-01-10T16:19:10;18.48;;;6.68;;
52284;SDS011;38238;53.304;6.606;2023-01-10T16:21:41;13.80;;;6.28;;
52284;SDS011;38238;53.304;6.606;2023-01-10T16:24:20;10.05;;;4.75;;
52284;SDS011;38238;53.304;6.606;2023-01-10T16:26:47;17.75;;;6.13;;
52284;SDS011;38238;53.304;6.606;2023-01-10T16:29:14;15.50;;;6.10;;
52284;SDS011;38238;53.304;6.606;2023-01-10T16:31:40;15.43;;;7.70;;
52284;SDS011;38238;53.304;6.606;2023-01-10T16:34:06;10.20;;;6.78;;
52284;SDS011;38238;53.304;6.606;2023-01-10T16:36:32;15.50;;;9.23;;
52284;SDS011;38238;53.304;6.606;2023-01-10T16:39:00;15.30;;;10.27;;
52284;SDS011;38238;53.304;6.606;2023-01-10T16:41:31;16.40;;;11.35;;
52284;SDS011;38238;53.304;6.606;2023-01-10T16:44:15;16.92;;;11.25;;
52284;SDS011;38238;53.304;6.606;2023-01-10T16:46:43;19.77;;;10.90;;
52284;SDS011;38238;53.304;6.606;2023-01-10T16:49:09;15.75;;;11.35;;
52284;SDS011;38238;53.304;6.606;2023-01-10T16:51:36;12.05;;;10.73;;
52284;SDS011;38238;53.304;6.606;2023-01-10T16:54:04;15.65;;;10.70;;
52284;SDS011;38238;53.304;6.606;2023-01-10T16:56:30;19.73;;;12.73;;